Airfield :
LOGIN :

Register | Disclaimer

   EN    FR    IT 

 










Legend :    VFR   Marginal VFR   IFR   Intensive IFR   Very Intensive IFR
Visi :
Ceiling :
>= 8 km
>= 3000ft
5 to 8 km
1000 to 3000 ft
1500m to 5 km
500 to 1000 ft
800 to 1500m
200 to 500 ft
< 800m
< 200 ft
Symbols :   Thunderstorms  Fog  Heavy snow  Heavy precipitations  Wind > 20 kt
SIGMETs :     Misc.  Thunderstorms  Icing  Turbulence  Mountain Waves  Volcanic Ashes







- Airport Elevation : 209 ft
- IATA code : CLY
- Download approach charts


LFKC - Calvi

CURRENT METAR :
  • 160530Z AUTO 18004KT CAVOK 03/00 Q1028 NOSIG

EXPIRED METARs :
  • 160500Z AUTO 19005KT CAVOK 03/00 Q1028 NOSIG
  • 160430Z AUTO 18005KT CAVOK 03/01 Q1028
  • 160400Z AUTO 21004KT CAVOK 03/00 Q1028
  • 160330Z AUTO VRB03KT CAVOK 03/00 Q1028
  • 160300Z AUTO 17004KT 130V190 CAVOK 04/01 Q1028

TAF TAF LFKC
Valid from the 16 at 03:00 until the 17 at 03:00 UTC


160200Z 1603/1703 18004KT CAVOK TX16/1613Z TN04/1604Z
BECMG 1609/1612 34008KT
BECMG 1618/1620 18004KT
ATIS : +33 4 95 65 82 49
No reported NOTAMs for that airfield.



MET'MAP, your aeronautical weather chart ! - Copyright ORBIFLY December 2007 - Disclaimer

ORBIFLY MET'MAP TEAM :

Programming & Development : Alexandra Zaïnal
Concept & Development : Baudouin d'Aumeries
Co-Development & Prog : Marc-Olivier Méhu
Technical & hardware support : Manuel Goepfert

Contact : metmap@orbifly.com




SOURCES & CREDITS :

   NOAA